sensor_id;sensor_type;location;lat;lon;timestamp;P1;durP1;ratioP1;P2;durP2;ratioP2
47053;SDS011;32811;52.382;5.270;2023-10-13T00:01:55;10.35;;;5.10;;
47053;SDS011;32811;52.382;5.270;2023-10-13T00:04:25;9.85;;;6.07;;
47053;SDS011;32811;52.382;5.270;2023-10-13T00:06:53;13.68;;;6.57;;
47053;SDS011;32811;52.382;5.270;2023-10-13T00:09:23;13.85;;;6.75;;
47053;SDS011;32811;52.382;5.270;2023-10-13T00:11:59;14.77;;;7.78;;
47053;SDS011;32811;52.382;5.270;2023-10-13T00:14:29;12.68;;;8.43;;
47053;SDS011;32811;52.382;5.270;2023-10-13T00:17:04;13.25;;;7.93;;
47053;SDS011;32811;52.382;5.270;2023-10-13T00:19:42;8.45;;;6.50;;
47053;SDS011;32811;52.382;5.270;2023-10-13T00:22:13;12.10;;;6.63;;
47053;SDS011;32811;52.382;5.270;2023-10-13T00:24:43;20.25;;;5.88;;
47053;SDS011;32811;52.382;5.270;2023-10-13T00:45:41;7.60;;;5.45;;
47053;SDS011;32811;52.382;5.270;2023-10-13T00:56:08;11.48;;;6.82;;
47053;SDS011;32811;52.382;5.270;2023-10-13T00:59:28;10.88;;;6.70;;
47053;SDS011;32811;52.382;5.270;2023-10-13T01:02:31;8.35;;;6.30;;
47053;SDS011;32811;52.382;5.270;2023-10-13T01:12:49;9.93;;;5.93;;
47053;SDS011;32811;52.382;5.270;2023-10-13T01:19:38;6.70;;;6.05;;
47053;SDS011;32811;52.382;5.270;2023-10-13T01:22:52;13.32;;;5.60;;
47053;SDS011;32811;52.382;5.270;2023-10-13T01:26:21;10.32;;;5.97;;
47053;SDS011;32811;52.382;5.270;2023-10-13T01:29:37;7.10;;;5.88;;
47053;SDS011;32811;52.382;5.270;2023-10-13T01:32:56;10.60;;;6.90;;
47053;SDS011;32811;52.382;5.270;2023-10-13T01:36:05;6.72;;;5.82;;
47053;SDS011;32811;52.382;5.270;2023-10-13T01:38:59;7.70;;;6.43;;
47053;SDS011;32811;52.382;5.270;2023-10-13T01:41:38;10.18;;;7.05;;
47053;SDS011;32811;52.382;5.270;2023-10-13T01:44:30;7.75;;;6.90;;
47053;SDS011;32811;52.382;5.270;2023-10-13T01:47:04;17.85;;;7.55;;
47053;SDS011;32811;52.382;5.270;2023-10-13T01:49:53;9.13;;;7.40;;
47053;SDS011;32811;52.382;5.270;2023-10-13T01:52:24;14.32;;;9.65;;
47053;SDS011;32811;52.382;5.270;2023-10-13T01:54:56;11.15;;;8.68;;
47053;SDS011;32811;52.382;5.270;2023-10-13T02:01:03;10.88;;;8.32;;
47053;SDS011;32811;52.382;5.270;2023-10-13T02:04:18;10.10;;;9.10;;
47053;SDS011;32811;52.382;5.270;2023-10-13T02:06:50;13.27;;;9.88;;
47053;SDS011;32811;52.382;5.270;2023-10-13T02:09:24;16.02;;;10.23;;
47053;SDS011;32811;52.382;5.270;2023-10-13T02:12:31;15.23;;;10.13;;
47053;SDS011;32811;52.382;5.270;2023-10-13T02:15:26;14.73;;;9.57;;
47053;SDS011;32811;52.382;5.270;2023-10-13T02:18:30;14.57;;;10.32;;
47053;SDS011;32811;52.382;5.270;2023-10-13T02:24:33;13.07;;;9.13;;
47053;SDS011;32811;52.382;5.270;2023-10-13T02:27:20;14.73;;;10.50;;
47053;SDS011;32811;52.382;5.270;2023-10-13T02:29:58;14.07;;;9.02;;
47053;SDS011;32811;52.382;5.270;2023-10-13T02:32:36;12.45;;;10.02;;
47053;SDS011;32811;52.382;5.270;2023-10-13T02:35:08;11.32;;;9.20;;
47053;SDS011;32811;52.382;5.270;2023-10-13T02:37:52;9.40;;;8.50;;
47053;SDS011;32811;52.382;5.270;2023-10-13T02:40:22;8.25;;;7.53;;
47053;SDS011;32811;52.382;5.270;2023-10-13T02:42:52;12.43;;;8.23;;
47053;SDS011;32811;52.382;5.270;2023-10-13T02:45:27;11.15;;;7.85;;
47053;SDS011;32811;52.382;5.270;2023-10-13T02:47:53;12.20;;;7.45;;
47053;SDS011;32811;52.382;5.270;2023-10-13T02:50:39;8.90;;;7.68;;
47053;SDS011;32811;52.382;5.270;2023-10-13T02:53:21;12.55;;;8.18;;
47053;SDS011;32811;52.382;5.270;2023-10-13T02:56:01;10.25;;;8.32;;
47053;SDS011;32811;52.382;5.270;2023-10-13T02:58:55;10.95;;;7.65;;
47053;SDS011;32811;52.382;5.270;2023-10-13T03:01:36;14.90;;;7.35;;
47053;SDS011;32811;52.382;5.270;2023-10-13T03:04:08;10.68;;;7.15;;
47053;SDS011;32811;52.382;5.270;2023-10-13T03:06:37;11.13;;;7.93;;
47053;SDS011;32811;52.382;5.270;2023-10-13T03:09:10;8.98;;;6.47;;
47053;SDS011;32811;52.382;5.270;2023-10-13T03:14:52;8.27;;;7.32;;
47053;SDS011;32811;52.382;5.270;2023-10-13T03:17:26;11.10;;;7.07;;
47053;SDS011;32811;52.382;5.270;2023-10-13T03:20:04;10.85;;;6.32;;
47053;SDS011;32811;52.382;5.270;2023-10-13T03:22:37;8.77;;;6.88;;
47053;SDS011;32811;52.382;5.270;2023-10-13T03:25:06;8.80;;;6.72;;
47053;SDS011;32811;52.382;5.270;2023-10-13T03:27:35;13.10;;;6.80;;
47053;SDS011;32811;52.382;5.270;2023-10-13T03:30:08;10.07;;;6.70;;
47053;SDS011;32811;52.382;5.270;2023-10-13T03:32:42;7.28;;;6.35;;
47053;SDS011;32811;52.382;5.270;2023-10-13T03:35:14;9.55;;;6.05;;
47053;SDS011;32811;52.382;5.270;2023-10-13T03:37:51;6.93;;;6.13;;
47053;SDS011;32811;52.382;5.270;2023-10-13T03:40:18;7.05;;;6.25;;
47053;SDS011;32811;52.382;5.270;2023-10-13T03:42:54;11.02;;;6.00;;
47053;SDS011;32811;52.382;5.270;2023-10-13T03:45:34;9.32;;;6.38;;
47053;SDS011;32811;52.382;5.270;2023-10-13T03:48:09;8.95;;;5.40;;
47053;SDS011;32811;52.382;5.270;2023-10-13T03:51:01;12.65;;;5.85;;
47053;SDS011;32811;52.382;5.270;2023-10-13T03:53:38;7.50;;;5.43;;
47053;SDS011;32811;52.382;5.270;2023-10-13T03:56:26;11.15;;;6.30;;
47053;SDS011;32811;52.382;5.270;2023-10-13T03:59:14;6.35;;;5.20;;
47053;SDS011;32811;52.382;5.270;2023-10-13T04:17:06;5.60;;;4.15;;
47053;SDS011;32811;52.382;5.270;2023-10-13T04:20:01;5.15;;;3.97;;
47053;SDS011;32811;52.382;5.270;2023-10-13T04:26:04;12.32;;;3.90;;
47053;SDS011;32811;52.382;5.270;2023-10-13T04:29:09;4.40;;;3.75;;
47053;SDS011;32811;52.382;5.270;2023-10-13T04:32:05;6.57;;;3.35;;
47053;SDS011;32811;52.382;5.270;2023-10-13T04:39:32;8.82;;;3.40;;
47053;SDS011;32811;52.382;5.270;2023-10-13T04:48:35;3.47;;;2.38;;
47053;SDS011;32811;52.382;5.270;2023-10-13T04:54:57;2.15;;;1.92;;
47053;SDS011;32811;52.382;5.270;2023-10-13T04:58:29;2.75;;;2.50;;
47053;SDS011;32811;52.382;5.270;2023-10-13T05:09:44;2.55;;;2.28;;
47053;SDS011;32811;52.382;5.270;2023-10-13T05:16:30;4.10;;;1.73;;
47053;SDS011;32811;52.382;5.270;2023-10-13T05:35:03;5.50;;;1.80;;
47053;SDS011;32811;52.382;5.270;2023-10-13T05:37:53;3.30;;;2.03;;
47053;SDS011;32811;52.382;5.270;2023-10-13T05:43:54;8.02;;;2.22;;
47053;SDS011;32811;52.382;5.270;2023-10-13T05:47:06;5.15;;;2.03;;
47053;SDS011;32811;52.382;5.270;2023-10-13T05:49:59;5.15;;;2.13;;
47053;SDS011;32811;52.382;5.270;2023-10-13T05:52:45;6.35;;;2.30;;
47053;SDS011;32811;52.382;5.270;2023-10-13T05:55:25;4.75;;;2.20;;
47053;SDS011;32811;52.382;5.270;2023-10-13T05:58:12;5.97;;;2.00;;
47053;SDS011;32811;52.382;5.270;2023-10-13T06:00:58;7.45;;;1.90;;
47053;SDS011;32811;52.382;5.270;2023-10-13T06:03:44;7.13;;;2.53;;
47053;SDS011;32811;52.382;5.270;2023-10-13T06:06:29;7.30;;;2.08;;
47053;SDS011;32811;52.382;5.270;2023-10-13T06:09:14;12.23;;;2.47;;
47053;SDS011;32811;52.382;5.270;2023-10-13T06:11:59;5.82;;;1.83;;
47053;SDS011;32811;52.382;5.270;2023-10-13T06:14:45;7.30;;;2.20;;
47053;SDS011;32811;52.382;5.270;2023-10-13T06:17:30;10.40;;;2.20;;
47053;SDS011;32811;52.382;5.270;2023-10-13T06:23:03;11.73;;;3.50;;
47053;SDS011;32811;52.382;5.270;2023-10-13T06:25:52;8.98;;;2.63;;
47053;SDS011;32811;52.382;5.270;2023-10-13T06:28:37;8.20;;;2.65;;
47053;SDS011;32811;52.382;5.270;2023-10-13T06:31:08;11.02;;;2.97;;
47053;SDS011;32811;52.382;5.270;2023-10-13T06:33:48;9.93;;;2.70;;
47053;SDS011;32811;52.382;5.270;2023-10-13T06:36:15;9.13;;;3.05;;
47053;SDS011;32811;52.382;5.270;2023-10-13T06:38:44;10.38;;;2.22;;
47053;SDS011;32811;52.382;5.270;2023-10-13T06:41:11;13.68;;;3.67;;
47053;SDS011;32811;52.382;5.270;2023-10-13T06:43:46;6.93;;;2.90;;
47053;SDS011;32811;52.382;5.270;2023-10-13T06:46:26;12.18;;;3.08;;
47053;SDS011;32811;52.382;5.270;2023-10-13T06:48:55;8.50;;;2.72;;
47053;SDS011;32811;52.382;5.270;2023-10-13T06:51:25;9.50;;;2.58;;
47053;SDS011;32811;52.382;5.270;2023-10-13T06:53:57;13.77;;;2.30;;
47053;SDS011;32811;52.382;5.270;2023-10-13T06:56:24;7.30;;;2.38;;
47053;SDS011;32811;52.382;5.270;2023-10-13T06:58:54;11.50;;;2.72;;
47053;SDS011;32811;52.382;5.270;2023-10-13T07:01:31;10.55;;;3.75;;
47053;SDS011;32811;52.382;5.270;2023-10-13T07:04:09;13.90;;;3.47;;
47053;SDS011;32811;52.382;5.270;2023-10-13T07:06:43;10.15;;;2.70;;
47053;SDS011;32811;52.382;5.270;2023-10-13T07:09:17;6.70;;;2.37;;
47053;SDS011;32811;52.382;5.270;2023-10-13T07:12:03;9.13;;;1.85;;
47053;SDS011;32811;52.382;5.270;2023-10-13T07:14:33;12.30;;;2.92;;
47053;SDS011;32811;52.382;5.270;2023-10-13T07:17:01;8.00;;;2.40;;
47053;SDS011;32811;52.382;5.270;2023-10-13T07:19:29;8.10;;;3.30;;
47053;SDS011;32811;52.382;5.270;2023-10-13T07:21:58;13.38;;;3.20;;
47053;SDS011;32811;52.382;5.270;2023-10-13T07:24:29;8.80;;;3.53;;
47053;SDS011;32811;52.382;5.270;2023-10-13T07:27:02;4.73;;;1.90;;
47053;SDS011;32811;52.382;5.270;2023-10-13T07:29:31;8.90;;;3.60;;
47053;SDS011;32811;52.382;5.270;2023-10-13T07:32:02;8.07;;;2.58;;
47053;SDS011;32811;52.382;5.270;2023-10-13T07:34:29;8.43;;;3.50;;
47053;SDS011;32811;52.382;5.270;2023-10-13T07:36:59;9.27;;;3.17;;
47053;SDS011;32811;52.382;5.270;2023-10-13T07:39:30;14.13;;;4.05;;
47053;SDS011;32811;52.382;5.270;2023-10-13T07:42:02;7.85;;;3.80;;
47053;SDS011;32811;52.382;5.270;2023-10-13T07:44:34;7.88;;;3.30;;
47053;SDS011;32811;52.382;5.270;2023-10-13T07:47:03;6.00;;;3.35;;
47053;SDS011;32811;52.382;5.270;2023-10-13T07:49:38;7.47;;;3.45;;
47053;SDS011;32811;52.382;5.270;2023-10-13T07:52:09;8.70;;;4.18;;
47053;SDS011;32811;52.382;5.270;2023-10-13T07:54:47;10.88;;;5.40;;
47053;SDS011;32811;52.382;5.270;2023-10-13T07:57:22;11.40;;;5.03;;
47053;SDS011;32811;52.382;5.270;2023-10-13T07:59:55;11.90;;;5.65;;
47053;SDS011;32811;52.382;5.270;2023-10-13T08:02:38;8.77;;;4.72;;
47053;SDS011;32811;52.382;5.270;2023-10-13T08:05:15;9.38;;;3.88;;
47053;SDS011;32811;52.382;5.270;2023-10-13T08:08:05;8.32;;;3.67;;
47053;SDS011;32811;52.382;5.270;2023-10-13T08:10:41;7.55;;;4.30;;
47053;SDS011;32811;52.382;5.270;2023-10-13T08:13:12;9.60;;;4.63;;
47053;SDS011;32811;52.382;5.270;2023-10-13T08:15:42;8.82;;;3.55;;
47053;SDS011;32811;52.382;5.270;2023-10-13T08:18:16;19.35;;;5.18;;
47053;SDS011;32811;52.382;5.270;2023-10-13T08:21:02;13.55;;;3.80;;
47053;SDS011;32811;52.382;5.270;2023-10-13T08:23:30;5.97;;;3.25;;
47053;SDS011;32811;52.382;5.270;2023-10-13T08:26:15;8.90;;;3.85;;
47053;SDS011;32811;52.382;5.270;2023-10-13T08:29:17;15.32;;;3.92;;
47053;SDS011;32811;52.382;5.270;2023-10-13T08:31:51;7.05;;;3.50;;
47053;SDS011;32811;52.382;5.270;2023-10-13T08:34:31;16.17;;;5.22;;
47053;SDS011;32811;52.382;5.270;2023-10-13T08:37:10;13.45;;;3.53;;
47053;SDS011;32811;52.382;5.270;2023-10-13T08:39:49;14.38;;;3.97;;
47053;SDS011;32811;52.382;5.270;2023-10-13T08:42:45;20.83;;;3.80;;
47053;SDS011;32811;52.382;5.270;2023-10-13T08:45:13;9.95;;;3.67;;
47053;SDS011;32811;52.382;5.270;2023-10-13T08:48:07;11.82;;;3.30;;
47053;SDS011;32811;52.382;5.270;2023-10-13T08:53:15;11.98;;;3.80;;
47053;SDS011;32811;52.382;5.270;2023-10-13T08:56:10;10.93;;;3.28;;
47053;SDS011;32811;52.382;5.270;2023-10-13T09:01:27;11.70;;;3.35;;
47053;SDS011;32811;52.382;5.270;2023-10-13T09:04:15;12.75;;;3.45;;
47053;SDS011;32811;52.382;5.270;2023-10-13T09:09:32;13.75;;;4.30;;
47053;SDS011;32811;52.382;5.270;2023-10-13T09:14:43;11.90;;;3.13;;
47053;SDS011;32811;52.382;5.270;2023-10-13T09:17:26;14.23;;;3.25;;
47053;SDS011;32811;52.382;5.270;2023-10-13T09:20:03;8.35;;;3.33;;
47053;SDS011;32811;52.382;5.270;2023-10-13T09:22:56;15.95;;;3.85;;
47053;SDS011;32811;52.382;5.270;2023-10-13T09:25:29;13.90;;;3.85;;
47053;SDS011;32811;52.382;5.270;2023-10-13T09:28:01;17.90;;;3.88;;
47053;SDS011;32811;52.382;5.270;2023-10-13T09:30:48;9.52;;;3.10;;
47053;SDS011;32811;52.382;5.270;2023-10-13T09:33:22;15.67;;;4.23;;
47053;SDS011;32811;52.382;5.270;2023-10-13T09:35:59;15.05;;;3.95;;
47053;SDS011;32811;52.382;5.270;2023-10-13T09:38:27;14.85;;;4.72;;
47053;SDS011;32811;52.382;5.270;2023-10-13T09:40:55;12.75;;;3.72;;
47053;SDS011;32811;52.382;5.270;2023-10-13T09:43:24;13.90;;;3.53;;
47053;SDS011;32811;52.382;5.270;2023-10-13T09:45:55;16.63;;;4.60;;
47053;SDS011;32811;52.382;5.270;2023-10-13T09:48:44;11.60;;;3.70;;
47053;SDS011;32811;52.382;5.270;2023-10-13T09:51:16;9.40;;;3.33;;
47053;SDS011;32811;52.382;5.270;2023-10-13T09:54:04;11.20;;;4.13;;
47053;SDS011;32811;52.382;5.270;2023-10-13T09:57:00;20.88;;;3.95;;
47053;SDS011;32811;52.382;5.270;2023-10-13T09:59:40;11.38;;;3.42;;
47053;SDS011;32811;52.382;5.270;2023-10-13T10:02:18;21.27;;;5.47;;
47053;SDS011;32811;52.382;5.270;2023-10-13T10:04:55;11.35;;;3.38;;
47053;SDS011;32811;52.382;5.270;2023-10-13T10:07:41;11.07;;;4.05;;
47053;SDS011;32811;52.382;5.270;2023-10-13T10:10:10;9.02;;;4.30;;
47053;SDS011;32811;52.382;5.270;2023-10-13T10:12:42;11.77;;;4.50;;
47053;SDS011;32811;52.382;5.270;2023-10-13T10:15:26;9.82;;;3.67;;
47053;SDS011;32811;52.382;5.270;2023-10-13T10:18:02;14.23;;;3.17;;
47053;SDS011;32811;52.382;5.270;2023-10-13T10:20:34;13.25;;;3.42;;
47053;SDS011;32811;52.382;5.270;2023-10-13T10:23:09;17.80;;;4.07;;
47053;SDS011;32811;52.382;5.270;2023-10-13T10:25:48;10.80;;;3.53;;
47053;SDS011;32811;52.382;5.270;2023-10-13T10:28:16;16.58;;;4.28;;
47053;SDS011;32811;52.382;5.270;2023-10-13T10:30:45;12.35;;;4.28;;
47053;SDS011;32811;52.382;5.270;2023-10-13T10:33:12;14.60;;;4.20;;
47053;SDS011;32811;52.382;5.270;2023-10-13T10:35:43;18.65;;;4.40;;
47053;SDS011;32811;52.382;5.270;2023-10-13T10:43:18;13.25;;;3.65;;
47053;SDS011;32811;52.382;5.270;2023-10-13T10:45:59;20.70;;;6.03;;
47053;SDS011;32811;52.382;5.270;2023-10-13T10:48:26;21.08;;;3.60;;
47053;SDS011;32811;52.382;5.270;2023-10-13T10:50:59;14.98;;;3.40;;
47053;SDS011;32811;52.382;5.270;2023-10-13T10:53:33;13.60;;;3.72;;
47053;SDS011;32811;52.382;5.270;2023-10-13T10:56:12;13.27;;;4.47;;
47053;SDS011;32811;52.382;5.270;2023-10-13T10:58:49;14.60;;;4.20;;
47053;SDS011;32811;52.382;5.270;2023-10-13T11:01:27;11.30;;;3.03;;
47053;SDS011;32811;52.382;5.270;2023-10-13T11:04:01;20.98;;;4.43;;
47053;SDS011;32811;52.382;5.270;2023-10-13T11:06:35;18.00;;;5.07;;
47053;SDS011;32811;52.382;5.270;2023-10-13T11:09:09;9.95;;;3.42;;
47053;SDS011;32811;52.382;5.270;2023-10-13T11:11:47;13.02;;;3.78;;
47053;SDS011;32811;52.382;5.270;2023-10-13T11:16:57;11.70;;;3.88;;
47053;SDS011;32811;52.382;5.270;2023-10-13T11:19:35;11.23;;;3.25;;
47053;SDS011;32811;52.382;5.270;2023-10-13T11:22:13;11.15;;;4.75;;
47053;SDS011;32811;52.382;5.270;2023-10-13T11:24:59;20.77;;;4.30;;
47053;SDS011;32811;52.382;5.270;2023-10-13T11:27:36;9.18;;;4.00;;
47053;SDS011;32811;52.382;5.270;2023-10-13T11:30:26;13.30;;;3.97;;
47053;SDS011;32811;52.382;5.270;2023-10-13T11:33:03;13.50;;;4.13;;
47053;SDS011;32811;52.382;5.270;2023-10-13T11:35:37;16.67;;;4.55;;
47053;SDS011;32811;52.382;5.270;2023-10-13T11:38:23;14.48;;;4.82;;
47053;SDS011;32811;52.382;5.270;2023-10-13T11:40:57;8.48;;;3.70;;
47053;SDS011;32811;52.382;5.270;2023-10-13T11:43:37;15.63;;;4.68;;
47053;SDS011;32811;52.382;5.270;2023-10-13T11:46:18;9.43;;;4.22;;
47053;SDS011;32811;52.382;5.270;2023-10-13T11:49:09;13.88;;;4.60;;
47053;SDS011;32811;52.382;5.270;2023-10-13T11:51:51;9.63;;;4.28;;
47053;SDS011;32811;52.382;5.270;2023-10-13T11:54:47;8.98;;;4.53;;
47053;SDS011;32811;52.382;5.270;2023-10-13T11:57:18;15.77;;;4.50;;
47053;SDS011;32811;52.382;5.270;2023-10-13T11:59:46;12.60;;;3.78;;
47053;SDS011;32811;52.382;5.270;2023-10-13T12:02:28;8.70;;;3.45;;
47053;SDS011;32811;52.382;5.270;2023-10-13T12:04:57;14.27;;;4.10;;
47053;SDS011;32811;52.382;5.270;2023-10-13T12:08:00;11.90;;;4.03;;
47053;SDS011;32811;52.382;5.270;2023-10-13T12:10:36;9.27;;;3.90;;
47053;SDS011;32811;52.382;5.270;2023-10-13T12:13:49;19.67;;;5.30;;
47053;SDS011;32811;52.382;5.270;2023-10-13T12:16:16;17.33;;;4.82;;
47053;SDS011;32811;52.382;5.270;2023-10-13T12:18:45;15.40;;;4.32;;
47053;SDS011;32811;52.382;5.270;2023-10-13T12:21:19;13.18;;;4.35;;
47053;SDS011;32811;52.382;5.270;2023-10-13T12:23:51;19.35;;;5.40;;
47053;SDS011;32811;52.382;5.270;2023-10-13T12:26:20;17.98;;;5.75;;
47053;SDS011;32811;52.382;5.270;2023-10-13T12:29:46;12.35;;;4.32;;
47053;SDS011;32811;52.382;5.270;2023-10-13T12:32:50;24.75;;;5.18;;
47053;SDS011;32811;52.382;5.270;2023-10-13T12:43:58;12.10;;;4.45;;
47053;SDS011;32811;52.382;5.270;2023-10-13T12:47:19;12.50;;;5.07;;
47053;SDS011;32811;52.382;5.270;2023-10-13T12:50:28;15.90;;;5.35;;
47053;SDS011;32811;52.382;5.270;2023-10-13T12:56:58;17.02;;;5.72;;
47053;SDS011;32811;52.382;5.270;2023-10-13T12:59:38;20.95;;;5.72;;
47053;SDS011;32811;52.382;5.270;2023-10-13T13:02:32;22.98;;;6.47;;
47053;SDS011;32811;52.382;5.270;2023-10-13T13:05:43;11.32;;;3.83;;
47053;SDS011;32811;52.382;5.270;2023-10-13T13:08:48;17.73;;;5.38;;
47053;SDS011;32811;52.382;5.270;2023-10-13T13:11:24;10.20;;;5.60;;
47053;SDS011;32811;52.382;5.270;2023-10-13T13:13:56;17.33;;;4.97;;
47053;SDS011;32811;52.382;5.270;2023-10-13T13:16:23;16.05;;;5.63;;
47053;SDS011;32811;52.382;5.270;2023-10-13T13:19:14;21.63;;;4.75;;
47053;SDS011;32811;52.382;5.270;2023-10-13T13:22:06;16.35;;;5.10;;
47053;SDS011;32811;52.382;5.270;2023-10-13T13:25:00;16.85;;;5.30;;
47053;SDS011;32811;52.382;5.270;2023-10-13T13:32:00;16.15;;;4.55;;
47053;SDS011;32811;52.382;5.270;2023-10-13T13:35:13;12.05;;;4.55;;
47053;SDS011;32811;52.382;5.270;2023-10-13T13:38:02;22.73;;;4.70;;
47053;SDS011;32811;52.382;5.270;2023-10-13T13:41:05;15.80;;;5.60;;
47053;SDS011;32811;52.382;5.270;2023-10-13T13:44:02;15.75;;;5.63;;
47053;SDS011;32811;52.382;5.270;2023-10-13T13:47:15;16.77;;;5.07;;
47053;SDS011;32811;52.382;5.270;2023-10-13T13:50:26;14.02;;;6.15;;
47053;SDS011;32811;52.382;5.270;2023-10-13T13:53:14;13.95;;;5.07;;
47053;SDS011;32811;52.382;5.270;2023-10-13T13:59:13;16.52;;;4.40;;
47053;SDS011;32811;52.382;5.270;2023-10-13T14:01:46;14.15;;;4.82;;
47053;SDS011;32811;52.382;5.270;2023-10-13T14:04:13;18.77;;;4.40;;
47053;SDS011;32811;52.382;5.270;2023-10-13T14:06:44;15.13;;;4.80;;
47053;SDS011;32811;52.382;5.270;2023-10-13T14:09:11;19.63;;;5.82;;
47053;SDS011;32811;52.382;5.270;2023-10-13T14:11:42;15.07;;;5.40;;
47053;SDS011;32811;52.382;5.270;2023-10-13T14:14:27;16.27;;;5.63;;
47053;SDS011;32811;52.382;5.270;2023-10-13T14:16:54;21.45;;;7.05;;
47053;SDS011;32811;52.382;5.270;2023-10-13T14:19:30;17.45;;;5.15;;
47053;SDS011;32811;52.382;5.270;2023-10-13T14:22:00;23.38;;;5.85;;
47053;SDS011;32811;52.382;5.270;2023-10-13T14:24:34;12.27;;;6.60;;
47053;SDS011;32811;52.382;5.270;2023-10-13T14:27:02;16.48;;;5.43;;
47053;SDS011;32811;52.382;5.270;2023-10-13T14:29:44;16.13;;;5.95;;
47053;SDS011;32811;52.382;5.270;2023-10-13T14:32:11;17.67;;;5.80;;
47053;SDS011;32811;52.382;5.270;2023-10-13T14:34:40;24.88;;;7.55;;
47053;SDS011;32811;52.382;5.270;2023-10-13T14:37:08;19.77;;;5.65;;
47053;SDS011;32811;52.382;5.270;2023-10-13T14:39:39;14.45;;;5.97;;
47053;SDS011;32811;52.382;5.270;2023-10-13T14:42:06;16.35;;;7.07;;
47053;SDS011;32811;52.382;5.270;2023-10-13T14:44:35;23.23;;;6.47;;
47053;SDS011;32811;52.382;5.270;2023-10-13T14:47:03;14.50;;;7.03;;
47053;SDS011;32811;52.382;5.270;2023-10-13T14:49:35;13.73;;;5.80;;
47053;SDS011;32811;52.382;5.270;2023-10-13T14:52:02;17.85;;;6.55;;
47053;SDS011;32811;52.382;5.270;2023-10-13T14:54:29;15.27;;;5.47;;
47053;SDS011;32811;52.382;5.270;2023-10-13T14:57:01;19.08;;;6.13;;
47053;SDS011;32811;52.382;5.270;2023-10-13T14:59:29;12.82;;;5.10;;
47053;SDS011;32811;52.382;5.270;2023-10-13T15:02:00;15.98;;;4.68;;
47053;SDS011;32811;52.382;5.270;2023-10-13T15:04:30;20.33;;;5.65;;
47053;SDS011;32811;52.382;5.270;2023-10-13T15:07:00;8.10;;;3.83;;
47053;SDS011;32811;52.382;5.270;2023-10-13T15:09:28;9.85;;;3.60;;
47053;SDS011;32811;52.382;5.270;2023-10-13T15:11:55;8.98;;;3.38;;
47053;SDS011;32811;52.382;5.270;2023-10-13T15:14:22;8.82;;;3.40;;
47053;SDS011;32811;52.382;5.270;2023-10-13T15:16:51;9.38;;;3.78;;
47053;SDS011;32811;52.382;5.270;2023-10-13T15:19:27;9.38;;;2.85;;
47053;SDS011;32811;52.382;5.270;2023-10-13T15:21:56;7.95;;;2.55;;
47053;SDS011;32811;52.382;5.270;2023-10-13T15:24:23;10.10;;;2.85;;
47053;SDS011;32811;52.382;5.270;2023-10-13T15:26:56;7.60;;;2.67;;
47053;SDS011;32811;52.382;5.270;2023-10-13T15:29:29;6.95;;;2.00;;
47053;SDS011;32811;52.382;5.270;2023-10-13T15:32:03;14.20;;;3.33;;
47053;SDS011;32811;52.382;5.270;2023-10-13T15:34:31;13.30;;;2.20;;
47053;SDS011;32811;52.382;5.270;2023-10-13T15:36:59;5.93;;;1.88;;
47053;SDS011;32811;52.382;5.270;2023-10-13T15:39:27;6.03;;;1.60;;
47053;SDS011;32811;52.382;5.270;2023-10-13T15:41:55;11.82;;;2.38;;
47053;SDS011;32811;52.382;5.270;2023-10-13T15:44:25;12.98;;;2.50;;
47053;SDS011;32811;52.382;5.270;2023-10-13T15:46:56;10.80;;;2.10;;
47053;SDS011;32811;52.382;5.270;2023-10-13T15:49:26;11.57;;;2.95;;
47053;SDS011;32811;52.382;5.270;2023-10-13T15:51:55;11.00;;;2.80;;
47053;SDS011;32811;52.382;5.270;2023-10-13T15:54:24;11.02;;;3.22;;
47053;SDS011;32811;52.382;5.270;2023-10-13T15:56:51;10.70;;;3.38;;
47053;SDS011;32811;52.382;5.270;2023-10-13T15:59:18;15.70;;;3.85;;
47053;SDS011;32811;52.382;5.270;2023-10-13T16:01:49;14.60;;;3.50;;
47053;SDS011;32811;52.382;5.270;2023-10-13T16:04:21;13.10;;;3.28;;
47053;SDS011;32811;52.382;5.270;2023-10-13T16:06:49;11.85;;;4.35;;
47053;SDS011;32811;52.382;5.270;2023-10-13T16:09:19;7.13;;;2.60;;
47053;SDS011;32811;52.382;5.270;2023-10-13T16:11:50;17.05;;;3.70;;
47053;SDS011;32811;52.382;5.270;2023-10-13T16:14:18;11.00;;;3.53;;
47053;SDS011;32811;52.382;5.270;2023-10-13T16:16:46;12.55;;;3.53;;
47053;SDS011;32811;52.382;5.270;2023-10-13T16:19:18;12.45;;;3.38;;
47053;SDS011;32811;52.382;5.270;2023-10-13T16:21:50;12.60;;;3.53;;
47053;SDS011;32811;52.382;5.270;2023-10-13T16:24:18;14.95;;;3.38;;
47053;SDS011;32811;52.382;5.270;2023-10-13T16:26:47;12.80;;;3.72;;
47053;SDS011;32811;52.382;5.270;2023-10-13T16:29:16;10.18;;;3.25;;
47053;SDS011;32811;52.382;5.270;2023-10-13T16:31:43;13.38;;;3.35;;
47053;SDS011;32811;52.382;5.270;2023-10-13T16:34:12;13.10;;;3.30;;
47053;SDS011;32811;52.382;5.270;2023-10-13T16:36:44;14.32;;;3.67;;
47053;SDS011;32811;52.382;5.270;2023-10-13T16:39:12;7.50;;;3.47;;
47053;SDS011;32811;52.382;5.270;2023-10-13T16:41:49;10.02;;;3.30;;
47053;SDS011;32811;52.382;5.270;2023-10-13T16:44:18;19.73;;;4.75;;
47053;SDS011;32811;52.382;5.270;2023-10-13T16:46:45;11.80;;;3.20;;
47053;SDS011;32811;52.382;5.270;2023-10-13T16:49:12;16.58;;;4.95;;
47053;SDS011;32811;52.382;5.270;2023-10-13T16:51:40;11.93;;;3.90;;
47053;SDS011;32811;52.382;5.270;2023-10-13T16:54:07;14.10;;;3.72;;
47053;SDS011;32811;52.382;5.270;2023-10-13T16:56:34;15.98;;;3.53;;
47053;SDS011;32811;52.382;5.270;2023-10-13T16:59:04;13.80;;;4.95;;
47053;SDS011;32811;52.382;5.270;2023-10-13T17:01:31;17.70;;;4.15;;
47053;SDS011;32811;52.382;5.270;2023-10-13T17:03:58;15.48;;;4.78;;
47053;SDS011;32811;52.382;5.270;2023-10-13T17:06:25;13.95;;;4.25;;
47053;SDS011;32811;52.382;5.270;2023-10-13T17:08:52;11.68;;;4.75;;
47053;SDS011;32811;52.382;5.270;2023-10-13T17:11:19;16.17;;;4.20;;
47053;SDS011;32811;52.382;5.270;2023-10-13T17:13:46;21.17;;;4.68;;
47053;SDS011;32811;52.382;5.270;2023-10-13T17:16:15;18.48;;;4.32;;
47053;SDS011;32811;52.382;5.270;2023-10-13T17:18:48;11.98;;;3.92;;
47053;SDS011;32811;52.382;5.270;2023-10-13T17:21:20;16.10;;;4.60;;
47053;SDS011;32811;52.382;5.270;2023-10-13T17:23:49;11.70;;;5.15;;
47053;SDS011;32811;52.382;5.270;2023-10-13T17:26:20;12.18;;;5.18;;
47053;SDS011;32811;52.382;5.270;2023-10-13T17:28:49;10.32;;;4.53;;
47053;SDS011;32811;52.382;5.270;2023-10-13T17:31:17;11.85;;;4.15;;
47053;SDS011;32811;52.382;5.270;2023-10-13T17:33:45;11.68;;;4.32;;
47053;SDS011;32811;52.382;5.270;2023-10-13T17:36:13;11.95;;;4.90;;
47053;SDS011;32811;52.382;5.270;2023-10-13T17:38:41;12.10;;;4.43;;
47053;SDS011;32811;52.382;5.270;2023-10-13T17:41:10;9.63;;;4.03;;
47053;SDS011;32811;52.382;5.270;2023-10-13T17:43:38;15.52;;;4.70;;
47053;SDS011;32811;52.382;5.270;2023-10-13T17:46:09;18.08;;;4.05;;
47053;SDS011;32811;52.382;5.270;2023-10-13T17:48:38;11.63;;;4.47;;
47053;SDS011;32811;52.382;5.270;2023-10-13T17:51:08;14.70;;;5.13;;
47053;SDS011;32811;52.382;5.270;2023-10-13T17:53:37;32.63;;;6.30;;
47053;SDS011;32811;52.382;5.270;2023-10-13T17:56:05;14.50;;;4.22;;
47053;SDS011;32811;52.382;5.270;2023-10-13T17:58:37;13.98;;;4.82;;
47053;SDS011;32811;52.382;5.270;2023-10-13T18:01:08;13.10;;;4.50;;
47053;SDS011;32811;52.382;5.270;2023-10-13T18:03:47;13.88;;;4.82;;
47053;SDS011;32811;52.382;5.270;2023-10-13T18:06:22;15.02;;;4.93;;
47053;SDS011;32811;52.382;5.270;2023-10-13T18:08:50;16.05;;;4.60;;
47053;SDS011;32811;52.382;5.270;2023-10-13T18:11:18;18.70;;;5.57;;
47053;SDS011;32811;52.382;5.270;2023-10-13T18:13:46;13.82;;;4.07;;
47053;SDS011;32811;52.382;5.270;2023-10-13T18:16:18;19.88;;;5.05;;